createdAt,value
2018-05-26T00:00:00.582Z,99.90
2018-05-26T00:02:26.894Z,99.90
2018-05-26T00:04:53.920Z,99.90
2018-05-26T00:07:20.212Z,99.90
2018-05-26T00:09:46.527Z,99.90
2018-05-26T00:12:12.832Z,99.90
2018-05-26T00:14:39.884Z,99.90
2018-05-26T00:17:06.924Z,99.90
2018-05-26T00:19:33.222Z,99.90
2018-05-26T00:21:59.517Z,99.90
2018-05-26T00:24:25.826Z,99.90
2018-05-26T00:26:52.891Z,99.90
2018-05-26T00:29:19.189Z,99.90
2018-05-26T00:31:45.508Z,99.90
2018-05-26T00:34:11.801Z,99.90
2018-05-26T00:36:38.124Z,99.90
2018-05-26T00:39:04.417Z,99.90
2018-05-26T00:41:30.738Z,99.90
2018-05-26T00:43:57.026Z,99.90
2018-05-26T00:46:23.340Z,99.90
2018-05-26T00:48:49.660Z,99.90
2018-05-26T00:51:16.708Z,99.90
2018-05-26T00:53:43.760Z,99.90
2018-05-26T00:56:10.084Z,99.90
2018-05-26T00:58:37.139Z,99.90
2018-05-26T01:01:04.209Z,99.90
2018-05-26T01:03:30.501Z,99.90
2018-05-26T01:05:56.829Z,99.90
2018-05-26T01:08:23.880Z,99.90
2018-05-26T01:10:50.168Z,99.90
2018-05-26T01:13:16.465Z,99.90
2018-05-26T01:15:43.494Z,99.90
2018-05-26T01:18:10.528Z,99.90
2018-05-26T01:20:36.857Z,99.90
2018-05-26T01:23:03.153Z,99.90
2018-05-26T01:25:29.441Z,99.90
2018-05-26T01:27:56.493Z,99.90
2018-05-26T01:30:23.524Z,99.90
2018-05-26T01:32:49.825Z,99.90
2018-05-26T01:35:16.111Z,99.90
2018-05-26T01:37:43.196Z,99.90
2018-05-26T01:40:09.484Z,99.90
2018-05-26T01:42:35.755Z,99.90
2018-05-26T01:45:02.075Z,99.90
2018-05-26T01:47:28.368Z,99.90
2018-05-26T01:49:54.697Z,99.90
2018-05-26T01:52:20.993Z,99.90
2018-05-26T01:54:47.320Z,99.90
2018-05-26T01:59:51.821Z,99.90
2018-05-26T02:02:18.842Z,99.90
2018-05-26T02:04:45.185Z,99.90
2018-05-26T02:07:11.465Z,99.90
2018-05-26T02:09:41.709Z,99.90
2018-05-26T02:12:07.994Z,99.90
2018-05-26T02:14:35.038Z,99.90
2018-05-26T02:17:02.085Z,99.90
2018-05-26T02:19:29.138Z,99.90
2018-05-26T02:21:56.168Z,99.90
2018-05-26T02:24:22.481Z,99.90
2018-05-26T02:26:48.771Z,99.90
2018-05-26T02:29:15.089Z,99.90
2018-05-26T02:31:41.390Z,99.90
2018-05-26T02:34:07.761Z,99.90
2018-05-26T02:36:34.064Z,99.90
2018-05-26T02:39:00.377Z,99.90
2018-05-26T02:41:26.680Z,99.90
2018-05-26T02:43:53.011Z,99.90
2018-05-26T02:46:19.640Z,99.90
2018-05-26T02:48:45.928Z,99.90
2018-05-26T02:51:12.221Z,99.90
2018-05-26T02:53:38.539Z,99.90
2018-05-26T02:56:04.989Z,99.90
2018-05-26T02:58:31.321Z,99.90
2018-05-26T03:00:57.728Z,99.90
2018-05-26T03:03:24.013Z,99.90
2018-05-26T03:05:56.504Z,99.90
2018-05-26T03:08:29.635Z,99.90
2018-05-26T03:11:02.071Z,99.90
2018-05-26T03:13:35.164Z,99.90
2018-05-26T03:19:04.752Z,99.90
2018-05-26T03:21:31.506Z,99.90
2018-05-26T03:23:57.812Z,99.90
2018-05-26T03:26:24.097Z,99.90
2018-05-26T03:28:51.147Z,99.90
2018-05-26T03:31:18.200Z,99.90
2018-05-26T03:33:45.224Z,99.90
2018-05-26T03:36:12.993Z,99.90
2018-05-26T03:38:39.297Z,99.90
2018-05-26T03:41:05.587Z,99.90
2018-05-26T03:43:31.934Z,99.90
2018-05-26T03:45:58.291Z,99.90
2018-05-26T03:48:24.768Z,99.90
2018-05-26T03:50:51.076Z,99.90
2018-05-26T03:53:17.386Z,99.90
2018-05-26T03:55:55.905Z,99.90
2018-05-26T03:58:34.648Z,99.90
2018-05-26T04:01:01.692Z,99.90
2018-05-26T04:03:28.001Z,99.90
2018-05-26T04:05:54.355Z,99.90
2018-05-26T04:08:20.664Z,99.90
2018-05-26T04:10:46.953Z,99.90
2018-05-26T04:13:14.012Z,99.90
2018-05-26T04:15:40.336Z,99.90
2018-05-26T04:18:06.678Z,99.90
2018-05-26T04:20:33.014Z,99.90
2018-05-26T04:22:59.332Z,99.90
2018-05-26T04:25:26.360Z,99.90
2018-05-26T04:27:53.393Z,99.90
2018-05-26T04:30:19.718Z,99.90
2018-05-26T04:32:48.072Z,99.90
2018-05-26T04:35:14.340Z,99.90
2018-05-26T04:37:40.677Z,99.90
2018-05-26T04:40:06.962Z,99.90
2018-05-26T04:42:33.244Z,99.90
2018-05-26T04:45:00.351Z,99.90
2018-05-26T04:47:26.640Z,99.90
2018-05-26T04:49:52.929Z,99.90
2018-05-26T04:52:19.237Z,99.90
2018-05-26T04:54:45.516Z,99.90
2018-05-26T04:57:12.580Z,99.90
2018-05-26T04:59:38.904Z,99.90
2018-05-26T05:02:05.928Z,99.90
2018-05-26T05:04:32.226Z,99.90
2018-05-26T05:06:58.572Z,99.90
2018-05-26T05:09:24.891Z,99.90
2018-05-26T05:11:51.210Z,99.90
2018-05-26T05:14:17.533Z,99.90
2018-05-26T05:16:43.852Z,99.90
2018-05-26T05:19:10.136Z,99.90
2018-05-26T05:21:36.449Z,99.90
2018-05-26T05:24:04.308Z,99.90
2018-05-26T05:26:30.613Z,99.90
2018-05-26T05:28:56.971Z,99.90
2018-05-26T05:31:23.283Z,99.90
2018-05-26T05:33:49.580Z,99.90
2018-05-26T05:36:17.382Z,99.90
2018-05-26T05:38:43.741Z,99.90
2018-05-26T05:41:10.057Z,99.90
2018-05-26T05:43:37.405Z,99.90
2018-05-26T05:46:03.710Z,99.90
2018-05-26T05:48:31.790Z,99.90
2018-05-26T05:50:58.845Z,99.90
2018-05-26T05:53:25.197Z,99.90
2018-05-26T05:55:51.524Z,99.90
2018-05-26T05:58:17.860Z,99.90
2018-05-26T06:00:44.168Z,99.90
2018-05-26T06:03:11.245Z,99.90
2018-05-26T06:05:37.605Z,99.90
2018-05-26T06:08:04.061Z,99.90
2018-05-26T06:10:31.156Z,99.90
2018-05-26T06:12:57.471Z,99.90
2018-05-26T06:15:24.533Z,99.90
2018-05-26T06:17:50.849Z,99.90
2018-05-26T06:20:17.924Z,99.90
2018-05-26T06:22:44.239Z,99.90
2018-05-26T06:25:10.557Z,99.90
2018-05-26T06:27:37.607Z,99.90
2018-05-26T06:30:03.904Z,99.90
2018-05-26T06:32:30.979Z,99.90
2018-05-26T06:34:58.021Z,99.90
2018-05-26T06:37:24.340Z,99.90
2018-05-26T06:39:50.636Z,99.90
2018-05-26T06:42:16.941Z,99.90
2018-05-26T06:44:43.979Z,99.90
2018-05-26T06:47:12.306Z,99.90
2018-05-26T06:49:38.625Z,99.90
2018-05-26T06:52:04.981Z,99.90
2018-05-26T06:54:31.288Z,99.90
2018-05-26T06:56:57.607Z,99.90
2018-05-26T06:59:23.941Z,99.90
2018-05-26T07:01:55.221Z,99.90
2018-05-26T07:04:21.546Z,99.90
2018-05-26T07:06:47.861Z,99.90
2018-05-26T07:09:14.228Z,99.90
2018-05-26T07:11:40.857Z,99.90
2018-05-26T07:14:07.170Z,99.90
2018-05-26T07:16:33.590Z,99.90
2018-05-26T07:19:01.454Z,99.90
2018-05-26T07:21:28.861Z,99.90
2018-05-26T07:23:55.175Z,99.90
2018-05-26T07:26:21.495Z,98.90
2018-05-26T07:28:47.834Z,96.90
2018-05-26T07:31:14.164Z,97.40
2018-05-26T07:33:40.497Z,97.40
2018-05-26T07:36:06.815Z,96.30
2018-05-26T07:38:33.140Z,93.30
2018-05-26T07:40:59.440Z,91.80
2018-05-26T07:43:26.517Z,89.80
2018-05-26T07:45:53.092Z,89.80
2018-05-26T07:48:19.370Z,90.00
2018-05-26T07:50:45.697Z,84.70
2018-05-26T07:53:12.024Z,81.60
2018-05-26T07:55:38.373Z,82.60
2018-05-26T07:58:05.420Z,80.30
2018-05-26T08:00:31.716Z,80.20
2018-05-26T08:02:58.005Z,77.90
2018-05-26T08:05:24.283Z,82.20
2018-05-26T08:07:50.592Z,87.20
2018-05-26T08:10:16.924Z,80.70
2018-05-26T08:12:43.220Z,76.90
2018-05-26T08:15:09.556Z,76.70
2018-05-26T08:17:35.844Z,76.50
2018-05-26T08:20:02.935Z,91.90
2018-05-26T08:22:29.225Z,91.70
2018-05-26T08:24:55.525Z,81.10
2018-05-26T08:27:21.906Z,70.60
2018-05-26T08:29:48.192Z,66.00
2018-05-26T08:32:14.482Z,65.40
2018-05-26T08:34:40.790Z,76.50
2018-05-26T08:37:07.835Z,61.70
2018-05-26T08:39:34.868Z,68.00
2018-05-26T08:42:01.191Z,68.10
2018-05-26T08:44:28.982Z,67.70
2018-05-26T08:46:56.024Z,83.40
2018-05-26T08:49:23.085Z,75.20
2018-05-26T08:51:54.006Z,65.60
2018-05-26T08:54:20.340Z,65.60
2018-05-26T08:56:47.405Z,58.10
2018-05-26T08:59:14.462Z,55.00
2018-05-26T09:01:41.482Z,56.50
2018-05-26T09:04:07.844Z,56.60
2018-05-26T09:06:34.860Z,54.50
2018-05-26T09:09:01.984Z,53.40
2018-05-26T09:11:28.383Z,53.20
2018-05-26T09:13:54.689Z,54.10
2018-05-26T09:16:25.673Z,53.50
2018-05-26T09:18:52.031Z,53.50
2018-05-26T09:21:18.305Z,54.70
2018-05-26T09:23:44.616Z,52.80
2018-05-26T09:26:17.656Z,50.10
2018-05-26T09:29:05.791Z,50.00
2018-05-26T09:31:41.293Z,53.60
2018-05-26T09:34:10.560Z,51.90
2018-05-26T09:36:42.783Z,51.20
2018-05-26T09:39:09.849Z,48.60
2018-05-26T09:41:36.129Z,48.60
2018-05-26T09:44:02.460Z,50.80
2018-05-26T09:46:28.749Z,53.60
2018-05-26T09:48:55.250Z,49.20
2018-05-26T09:51:22.288Z,52.10
2018-05-26T09:53:48.604Z,52.00
2018-05-26T09:56:15.987Z,47.20
2018-05-26T09:58:43.048Z,49.70
2018-05-26T10:01:13.121Z,49.60
2018-05-26T10:03:44.424Z,51.10
2018-05-26T10:06:24.159Z,50.70
2018-05-26T10:08:51.188Z,49.80
2018-05-26T10:11:17.569Z,49.80
2018-05-26T10:13:43.998Z,45.60
2018-05-26T10:16:11.369Z,45.80
2018-05-26T10:18:37.672Z,47.90
2018-05-26T10:21:04.024Z,48.10
2018-05-26T10:23:30.374Z,48.50
2018-05-26T10:25:56.805Z,50.10
2018-05-26T10:28:39.476Z,55.10
2018-05-26T10:31:05.883Z,53.60
2018-05-26T10:33:34.021Z,50.90
2018-05-26T10:36:00.361Z,51.00
2018-05-26T10:38:26.712Z,53.40
2018-05-26T10:40:53.206Z,48.70
2018-05-26T10:43:19.540Z,54.10
2018-05-26T10:45:58.248Z,53.20
2018-05-26T10:48:24.622Z,56.40
2018-05-26T10:50:50.991Z,48.40
2018-05-26T10:53:18.117Z,48.00
2018-05-26T10:55:44.477Z,48.00
2018-05-26T10:58:11.613Z,54.40
2018-05-26T11:00:37.956Z,54.50
2018-05-26T11:03:05.055Z,56.00
2018-05-26T11:05:31.569Z,56.00
2018-05-26T11:07:57.869Z,49.00
2018-05-26T11:10:24.188Z,45.10
2018-05-26T11:12:52.306Z,45.30
2018-05-26T11:15:18.660Z,45.30
2018-05-26T11:17:45.924Z,53.30
2018-05-26T11:20:12.201Z,53.30
2018-05-26T11:22:38.627Z,53.00
2018-05-26T11:25:05.693Z,46.40
2018-05-26T11:27:32.088Z,46.40
2018-05-26T11:29:58.437Z,51.50
2018-05-26T11:32:25.558Z,49.60
2018-05-26T11:34:52.011Z,49.50
2018-05-26T11:37:18.411Z,48.00
2018-05-26T11:39:44.819Z,49.20
2018-05-26T11:42:11.385Z,52.70
2018-05-26T11:44:37.817Z,51.60
2018-05-26T11:47:04.239Z,52.90
2018-05-26T11:49:32.635Z,48.20
2018-05-26T11:51:59.028Z,48.20
2018-05-26T11:54:25.370Z,48.60
2018-05-26T11:56:51.801Z,56.20
2018-05-26T11:59:18.099Z,50.80
2018-05-26T12:01:45.259Z,46.90
2018-05-26T12:04:11.616Z,46.90
2018-05-26T12:06:38.048Z,49.70
2018-05-26T12:09:04.583Z,48.10
2018-05-26T12:11:30.903Z,49.80
2018-05-26T12:13:57.185Z,47.00
2018-05-26T12:16:24.245Z,48.70
2018-05-26T12:18:50.521Z,48.50
2018-05-26T12:21:16.957Z,46.50
2018-05-26T12:23:47.218Z,48.30
2018-05-26T12:26:13.668Z,51.70
2018-05-26T12:28:40.029Z,50.30
2018-05-26T12:31:06.393Z,50.90
2018-05-26T12:33:32.741Z,50.90
2018-05-26T12:35:59.087Z,46.90
2018-05-26T12:38:26.156Z,47.40
2018-05-26T12:40:53.253Z,54.40
2018-05-26T12:43:19.665Z,54.40
2018-05-26T12:45:45.950Z,48.10
2018-05-26T12:48:28.516Z,49.40
2018-05-26T12:50:54.878Z,49.30
2018-05-26T12:53:21.238Z,51.00
2018-05-26T12:55:48.296Z,46.20
2018-05-26T12:58:14.765Z,46.10
2018-05-26T13:00:41.105Z,47.40
2018-05-26T13:03:07.497Z,49.60
2018-05-26T13:05:33.893Z,46.40
2018-05-26T13:08:00.312Z,44.50
2018-05-26T13:10:27.530Z,47.00
2018-05-26T13:12:53.876Z,47.00
2018-05-26T13:15:20.396Z,50.70
2018-05-26T13:17:46.857Z,49.50
2018-05-26T13:20:13.320Z,41.30
2018-05-26T13:22:39.695Z,41.00
2018-05-26T13:25:06.856Z,45.00
2018-05-26T13:27:35.301Z,44.80
2018-05-26T13:30:02.502Z,45.80
2018-05-26T13:32:28.828Z,45.80
2018-05-26T13:34:55.161Z,50.40
2018-05-26T13:37:21.501Z,47.60
2018-05-26T13:39:47.818Z,48.60
2018-05-26T13:42:14.178Z,41.80
2018-05-26T13:44:40.934Z,41.60
2018-05-26T13:47:07.269Z,42.60
2018-05-26T13:49:34.365Z,42.80
2018-05-26T13:52:01.539Z,43.20
2018-05-26T13:54:27.905Z,43.10
2018-05-26T13:56:54.239Z,45.40
2018-05-26T13:59:21.298Z,45.90
2018-05-26T14:01:47.650Z,45.80
2018-05-26T14:04:13.958Z,46.40
2018-05-26T14:06:42.243Z,49.80
2018-05-26T14:09:08.699Z,47.00
2018-05-26T14:11:35.009Z,49.80
2018-05-26T14:14:01.381Z,48.40
2018-05-26T14:16:28.562Z,44.00
2018-05-26T14:18:55.679Z,42.20
2018-05-26T14:21:22.804Z,40.70
2018-05-26T14:23:49.141Z,40.70
2018-05-26T14:26:19.360Z,44.50
2018-05-26T14:28:45.660Z,42.80
2018-05-26T14:31:12.754Z,45.20
2018-05-26T14:33:39.107Z,45.20
2018-05-26T14:36:05.448Z,47.20
2018-05-26T14:38:32.540Z,41.20
2018-05-26T14:40:58.895Z,41.20
2018-05-26T14:43:25.253Z,40.70
2018-05-26T14:45:53.097Z,38.60
2018-05-26T14:48:20.250Z,38.50
2018-05-26T14:50:46.596Z,38.50
2018-05-26T14:53:13.657Z,42.20
2018-05-26T14:55:40.952Z,41.90
2018-05-26T14:58:07.278Z,41.90
2018-05-26T15:00:33.621Z,40.90
2018-05-26T15:02:59.949Z,39.10
2018-05-26T15:05:26.424Z,38.20
2018-05-26T15:07:52.741Z,39.70
2018-05-26T15:10:19.819Z,39.90
2018-05-26T15:12:46.268Z,39.90
2018-05-26T15:15:12.616Z,40.20
2018-05-26T15:17:38.997Z,41.00
2018-05-26T15:20:05.330Z,39.60
2018-05-26T15:22:31.750Z,40.50
2018-05-26T15:24:58.125Z,39.10
2018-05-26T15:27:24.506Z,40.30
2018-05-26T15:29:50.880Z,40.90
2018-05-26T15:32:17.355Z,39.70
2018-05-26T15:34:43.924Z,40.30
2018-05-26T15:37:10.290Z,41.40
2018-05-26T15:39:36.801Z,40.00
2018-05-26T15:42:03.654Z,43.00
2018-05-26T15:44:30.009Z,40.10
2018-05-26T15:46:56.419Z,43.40
2018-05-26T15:49:23.482Z,42.00
2018-05-26T15:51:50.506Z,40.60
2018-05-26T15:54:16.809Z,40.60
2018-05-26T15:56:43.136Z,43.10
2018-05-26T15:59:09.429Z,45.30
2018-05-26T16:01:38.517Z,39.80
2018-05-26T16:04:05.593Z,40.00
2018-05-26T16:06:31.913Z,40.00
2018-05-26T16:08:58.241Z,42.20
2018-05-26T16:11:45.264Z,43.40
2018-05-26T16:14:11.624Z,44.10
2018-05-26T16:16:37.944Z,42.50
2018-05-26T16:19:04.216Z,43.60
2018-05-26T16:21:30.598Z,38.30
2018-05-26T16:23:56.912Z,40.20
2018-05-26T16:26:23.208Z,39.30
2018-05-26T16:28:49.517Z,41.00
2018-05-26T16:31:15.832Z,43.60
2018-05-26T16:33:43.173Z,45.00
2018-05-26T16:36:09.543Z,41.30
2018-05-26T16:38:53.472Z,40.20
2018-05-26T16:41:19.792Z,41.90
2018-05-26T16:43:47.136Z,44.10
2018-05-26T16:46:13.424Z,41.90
2018-05-26T16:48:40.506Z,42.50
2018-05-26T16:51:18.973Z,42.50
2018-05-26T16:53:45.281Z,41.90
2018-05-26T16:56:11.600Z,42.70
2018-05-26T16:58:37.909Z,42.60
2018-05-26T17:01:04.258Z,44.30
2018-05-26T17:03:30.649Z,42.70
2018-05-26T17:05:57.684Z,44.50
2018-05-26T17:08:24.023Z,44.50
2018-05-26T17:10:50.369Z,46.00
2018-05-26T17:13:17.413Z,46.90
2018-05-26T17:15:58.780Z,47.40
2018-05-26T17:18:27.073Z,47.30
2018-05-26T17:20:54.137Z,46.60
2018-05-26T17:23:21.196Z,47.50
2018-05-26T17:25:47.512Z,47.40
2018-05-26T17:28:14.546Z,49.50
2018-05-26T17:30:41.645Z,51.60
2018-05-26T17:33:19.826Z,51.60
2018-05-26T17:35:46.173Z,51.60
2018-05-26T17:38:12.462Z,49.40
2018-05-26T17:40:39.521Z,50.70
2018-05-26T17:43:06.810Z,51.60
2018-05-26T17:45:33.117Z,51.60
2018-05-26T17:48:00.150Z,52.90
2018-05-26T17:50:27.235Z,51.50
2018-05-26T17:52:53.541Z,51.30
2018-05-26T17:55:20.599Z,53.90
2018-05-26T17:57:48.640Z,54.70
2018-05-26T18:00:14.980Z,54.60
2018-05-26T18:02:42.032Z,54.70
2018-05-26T18:05:09.112Z,55.20
2018-05-26T18:07:35.444Z,55.20
2018-05-26T18:10:01.826Z,55.90
2018-05-26T18:12:28.142Z,56.00
2018-05-26T18:14:54.465Z,57.70
2018-05-26T18:17:20.779Z,58.30
2018-05-26T18:19:47.102Z,58.00
2018-05-26T18:22:13.400Z,58.80
2018-05-26T18:24:39.863Z,59.30
2018-05-26T18:27:06.176Z,59.10
2018-05-26T18:29:33.285Z,60.80
2018-05-26T18:31:59.617Z,60.80
2018-05-26T18:34:25.983Z,62.00
2018-05-26T18:36:53.028Z,63.00
2018-05-26T18:39:20.095Z,64.50
2018-05-26T18:41:46.423Z,64.50
2018-05-26T18:44:13.449Z,67.00
2018-05-26T18:46:39.745Z,66.90
2018-05-26T18:49:06.124Z,67.70
2018-05-26T18:51:36.456Z,67.80
2018-05-26T18:54:03.476Z,69.40
2018-05-26T18:56:29.788Z,68.90
2018-05-26T18:58:56.144Z,69.80
2018-05-26T19:01:22.489Z,71.50
2018-05-26T19:03:49.560Z,72.60
2018-05-26T19:06:15.908Z,72.50
2018-05-26T19:08:42.219Z,73.30
2018-05-26T19:11:08.544Z,74.40
2018-05-26T19:13:35.593Z,77.60
2018-05-26T19:16:01.964Z,77.60
2018-05-26T19:18:28.316Z,79.60
2018-05-26T19:20:54.638Z,81.00
2018-05-26T19:23:20.961Z,82.30
2018-05-26T19:25:47.268Z,83.80
2018-05-26T19:28:13.557Z,85.10
2018-05-26T19:30:39.893Z,86.70
2018-05-26T19:33:06.947Z,89.40
2018-05-26T19:35:33.286Z,89.30
2018-05-26T19:38:00.377Z,90.90
2018-05-26T19:40:26.713Z,90.80
2018-05-26T19:42:53.057Z,91.40
2018-05-26T19:45:19.389Z,91.80
2018-05-26T19:47:45.741Z,92.20
2018-05-26T19:50:12.085Z,92.50
2018-05-26T19:52:38.389Z,92.80
2018-05-26T19:55:04.804Z,93.10
2018-05-26T19:57:31.103Z,93.40
2018-05-26T19:59:57.439Z,93.60
2018-05-26T20:02:24.481Z,94.00
2018-05-26T20:04:51.662Z,94.30
2018-05-26T20:07:17.970Z,94.30
2018-05-26T20:09:44.339Z,94.60
2018-05-26T20:12:10.649Z,95.00
2018-05-26T20:14:36.957Z,95.50
2018-05-26T20:17:04.052Z,96.20
2018-05-26T20:19:30.348Z,96.20
2018-05-26T20:21:57.403Z,96.80
2018-05-26T20:24:23.728Z,96.80
2018-05-26T20:26:50.041Z,96.90
2018-05-26T20:29:17.108Z,97.60
2018-05-26T20:31:43.447Z,97.60
2018-05-26T20:34:09.766Z,98.00
2018-05-26T20:36:36.801Z,98.70
2018-05-26T20:39:03.879Z,99.00
2018-05-26T20:41:30.194Z,98.90
2018-05-26T20:43:57.236Z,99.60
2018-05-26T20:46:24.291Z,99.80
2018-05-26T20:48:51.352Z,99.90
2018-05-26T20:51:17.680Z,99.90
2018-05-26T20:53:44.010Z,99.90
2018-05-26T20:56:11.082Z,99.90
2018-05-26T20:58:37.405Z,99.90
2018-05-26T21:01:03.810Z,99.90
2018-05-26T21:03:30.925Z,99.90
2018-05-26T21:05:58.024Z,99.90
2018-05-26T21:08:25.113Z,99.90
2018-05-26T21:10:51.457Z,99.90
2018-05-26T21:13:17.794Z,99.90
2018-05-26T21:15:44.133Z,99.90
2018-05-26T21:18:11.208Z,99.90
2018-05-26T21:20:38.241Z,99.90
2018-05-26T21:23:04.576Z,99.90
2018-05-26T21:25:31.609Z,99.90
2018-05-26T21:27:57.942Z,99.90
2018-05-26T21:30:24.245Z,99.90
2018-05-26T21:32:50.556Z,99.90
2018-05-26T21:35:16.898Z,99.90
2018-05-26T21:37:43.244Z,99.90
2018-05-26T21:40:09.536Z,99.90
2018-05-26T21:42:36.568Z,99.90
2018-05-26T21:45:03.656Z,99.90
2018-05-26T21:47:29.976Z,99.90
2018-05-26T21:49:57.021Z,99.90
2018-05-26T21:52:23.332Z,99.90
2018-05-26T21:54:50.392Z,99.90
2018-05-26T21:57:16.773Z,99.90
2018-05-26T21:59:43.090Z,99.90
2018-05-26T22:02:09.413Z,99.90
2018-05-26T22:04:35.742Z,99.90
2018-05-26T22:07:05.896Z,99.90
2018-05-26T22:09:32.275Z,99.90
2018-05-26T22:11:59.499Z,99.90
2018-05-26T22:14:26.227Z,99.90
2018-05-26T22:16:52.535Z,99.90
2018-05-26T22:19:18.982Z,99.90
2018-05-26T22:21:45.336Z,99.90
2018-05-26T22:24:11.661Z,99.90
2018-05-26T22:26:39.464Z,99.90
2018-05-26T22:29:06.523Z,99.90
2018-05-26T22:31:33.017Z,99.90
2018-05-26T22:33:59.345Z,99.90
2018-05-26T22:36:29.518Z,99.90
2018-05-26T22:38:55.857Z,99.90
2018-05-26T22:41:22.175Z,99.90
2018-05-26T22:43:49.512Z,99.90
2018-05-26T22:46:16.595Z,99.90
2018-05-26T22:48:42.965Z,99.90
2018-05-26T22:51:09.269Z,99.90
2018-05-26T22:53:35.661Z,99.90
2018-05-26T22:56:01.993Z,99.90
2018-05-26T22:58:32.934Z,99.90
2018-05-26T23:00:59.983Z,99.90
2018-05-26T23:03:26.331Z,99.90
2018-05-26T23:05:53.210Z,99.90
2018-05-26T23:08:19.489Z,99.90
2018-05-26T23:10:46.541Z,99.90
2018-05-26T23:13:14.233Z,99.90
2018-05-26T23:15:40.588Z,99.90
2018-05-26T23:18:06.920Z,99.90
2018-05-26T23:20:33.238Z,99.90
2018-05-26T23:22:59.561Z,99.90
2018-05-26T23:25:26.681Z,99.90
2018-05-26T23:27:53.757Z,99.90
2018-05-26T23:30:20.198Z,99.90
2018-05-26T23:32:46.580Z,99.90
2018-05-26T23:35:12.910Z,99.90
2018-05-26T23:37:40.712Z,99.90
2018-05-26T23:40:06.997Z,99.90
2018-05-26T23:42:33.301Z,99.90
2018-05-26T23:44:59.619Z,99.90
2018-05-26T23:47:25.940Z,99.90
2018-05-26T23:49:52.228Z,99.90
2018-05-26T23:52:18.529Z,99.90
2018-05-26T23:54:44.846Z,99.90
2018-05-26T23:57:11.157Z,99.90
2018-05-26T23:59:38.221Z,99.90
